createdAt,value
2017-07-27T00:00:18.241Z,18.27
2017-07-27T00:02:45.879Z,16.50
2017-07-27T00:05:14.078Z,14.87
2017-07-27T00:07:41.717Z,13.67
2017-07-27T00:10:09.364Z,12.77
2017-07-27T00:12:37.029Z,15.07
2017-07-27T00:15:04.651Z,11.60
2017-07-27T00:17:32.271Z,19.60
2017-07-27T00:19:59.922Z,15.60
2017-07-27T00:22:27.550Z,12.73
2017-07-27T00:24:55.184Z,17.57
2017-07-27T00:27:23.124Z,13.80
2017-07-27T00:29:51.143Z,11.90
2017-07-27T00:32:18.781Z,14.13
2017-07-27T00:34:46.428Z,15.90
2017-07-27T00:37:14.446Z,11.13
2017-07-27T00:39:42.047Z,17.40
2017-07-27T00:42:09.697Z,16.63
2017-07-27T00:44:37.317Z,16.13
2017-07-27T00:47:04.953Z,15.10
2017-07-27T00:49:32.584Z,13.13
2017-07-27T00:52:00.213Z,11.70
2017-07-27T00:54:27.849Z,10.90
2017-07-27T00:56:55.488Z,13.67
2017-07-27T00:59:23.521Z,10.90
2017-07-27T01:01:51.146Z,11.40
2017-07-27T01:04:18.808Z,18.03
2017-07-27T01:06:46.408Z,15.53
2017-07-27T01:09:14.169Z,16.97
2017-07-27T01:11:41.775Z,13.90
2017-07-27T01:14:09.821Z,10.93
2017-07-27T01:16:37.458Z,13.80
2017-07-27T01:19:05.075Z,13.13
2017-07-27T01:21:33.075Z,11.63
2017-07-27T01:24:00.749Z,12.93
2017-07-27T01:26:28.351Z,14.47
2017-07-27T01:28:55.966Z,20.43
2017-07-27T01:31:23.617Z,13.00
2017-07-27T01:33:51.258Z,14.23
2017-07-27T01:36:19.278Z,12.17
2017-07-27T01:38:46.941Z,11.73
2017-07-27T01:41:14.572Z,12.40
2017-07-27T01:43:42.190Z,12.70
2017-07-27T01:46:09.743Z,13.73
2017-07-27T01:48:37.254Z,9.90
2017-07-27T01:51:05.163Z,11.17
2017-07-27T01:53:32.695Z,11.10
2017-07-27T01:56:00.203Z,15.60
2017-07-27T01:58:27.724Z,10.60
2017-07-27T02:00:55.261Z,11.77
2017-07-27T02:03:22.770Z,13.20
2017-07-27T02:05:50.292Z,11.70
2017-07-27T02:08:17.838Z,11.93
2017-07-27T02:10:45.743Z,10.50
2017-07-27T02:13:13.279Z,19.57
2017-07-27T02:15:41.247Z,12.50
2017-07-27T02:18:09.150Z,21.73
2017-07-27T02:20:36.658Z,11.33
2017-07-27T02:23:04.201Z,10.07
2017-07-27T02:25:31.717Z,9.30
2017-07-27T02:27:59.231Z,11.67
2017-07-27T02:30:26.774Z,11.90
2017-07-27T02:32:54.380Z,9.40
2017-07-27T02:35:21.899Z,9.50
2017-07-27T02:37:49.436Z,10.20
2017-07-27T02:40:16.951Z,10.27
2017-07-27T02:42:44.855Z,13.20
2017-07-27T02:45:12.386Z,11.50
2017-07-27T02:47:40.301Z,11.63
2017-07-27T02:50:07.806Z,14.00
2017-07-27T02:52:35.330Z,21.77
2017-07-27T02:55:02.843Z,10.60
2017-07-27T02:57:30.368Z,13.70
2017-07-27T02:59:57.901Z,12.50
2017-07-27T03:02:25.407Z,11.33
2017-07-27T03:04:52.922Z,10.50
2017-07-27T03:07:20.450Z,8.73
2017-07-27T03:09:47.961Z,12.00
2017-07-27T03:12:15.483Z,12.30
2017-07-27T03:14:43.346Z,10.77
2017-07-27T03:17:10.854Z,16.50
2017-07-27T03:19:38.359Z,20.17
2017-07-27T03:22:05.893Z,12.83
2017-07-27T03:24:33.802Z,13.23
2017-07-27T03:27:01.310Z,10.83
2017-07-27T03:29:28.843Z,12.27
2017-07-27T03:31:56.354Z,21.47
2017-07-27T03:34:24.278Z,9.30
2017-07-27T03:36:51.798Z,11.93
2017-07-27T03:39:19.311Z,15.93
2017-07-27T03:41:46.827Z,15.43
2017-07-27T03:44:14.694Z,17.60
2017-07-27T03:46:42.215Z,32.10
2017-07-27T03:49:09.722Z,12.40
2017-07-27T03:51:37.271Z,17.33
2017-07-27T03:54:04.791Z,17.40
2017-07-27T03:56:32.307Z,12.90
2017-07-27T03:58:59.852Z,17.47
2017-07-27T04:01:27.372Z,12.93
2017-07-27T04:03:54.886Z,12.43
2017-07-27T04:06:22.393Z,17.00
2017-07-27T04:08:49.934Z,12.93
2017-07-27T04:11:17.448Z,14.83
2017-07-27T04:13:44.987Z,15.07
2017-07-27T04:16:12.499Z,15.67
2017-07-27T04:18:40.015Z,13.97
2017-07-27T04:21:07.574Z,18.07
2017-07-27T04:23:35.487Z,16.20
2017-07-27T04:26:03.014Z,14.27
2017-07-27T04:28:30.560Z,16.90
2017-07-27T04:30:58.470Z,15.10
2017-07-27T04:33:25.998Z,26.07
2017-07-27T04:35:53.544Z,12.00
2017-07-27T04:38:21.454Z,24.60
2017-07-27T04:40:48.962Z,16.20
2017-07-27T04:43:16.503Z,13.17
2017-07-27T04:45:44.039Z,14.97
2017-07-27T04:48:11.558Z,21.03
2017-07-27T04:50:39.862Z,17.80
2017-07-27T04:53:07.375Z,23.57
2017-07-27T04:55:34.894Z,20.90
2017-07-27T04:58:02.439Z,14.87
2017-07-27T05:00:29.960Z,13.43
2017-07-27T05:02:57.496Z,14.00
2017-07-27T05:05:25.038Z,14.10
2017-07-27T05:07:52.550Z,14.53
2017-07-27T05:10:20.460Z,23.97
2017-07-27T05:12:47.994Z,16.20
2017-07-27T05:15:15.515Z,17.07
2017-07-27T05:17:43.034Z,14.20
2017-07-27T05:20:10.574Z,11.10
2017-07-27T05:22:38.486Z,15.23
2017-07-27T05:25:05.994Z,19.07
2017-07-27T05:27:33.927Z,14.67
2017-07-27T05:30:01.438Z,16.07
2017-07-27T05:32:28.962Z,16.33
2017-07-27T05:34:56.494Z,18.23
2017-07-27T05:37:24.002Z,15.90
2017-07-27T05:39:51.914Z,14.37
2017-07-27T05:42:19.455Z,18.00
2017-07-27T05:44:46.979Z,15.23
2017-07-27T05:47:14.488Z,13.17
2017-07-27T05:49:42.022Z,14.17
2017-07-27T05:52:09.928Z,11.70
2017-07-27T05:54:37.398Z,19.33
2017-07-27T05:57:04.966Z,14.50
2017-07-27T05:59:32.471Z,14.83
2017-07-27T06:02:00.476Z,12.97
2017-07-27T06:04:28.014Z,24.87
2017-07-27T06:06:55.518Z,19.03
2017-07-27T06:09:23.030Z,19.97
2017-07-27T06:11:50.557Z,17.00
2017-07-27T06:14:18.062Z,16.50
2017-07-27T06:16:45.578Z,25.83
2017-07-27T06:19:13.123Z,20.43
2017-07-27T06:21:40.626Z,19.30
2017-07-27T06:24:08.131Z,16.97
2017-07-27T06:26:35.661Z,20.03
2017-07-27T06:29:03.170Z,17.27
2017-07-27T06:31:30.669Z,18.60
2017-07-27T06:33:58.592Z,19.37
2017-07-27T06:36:26.115Z,25.93
2017-07-27T06:38:53.632Z,16.27
2017-07-27T06:41:21.171Z,16.87
2017-07-27T06:43:48.682Z,16.37
2017-07-27T06:46:16.195Z,14.07
2017-07-27T06:48:43.739Z,17.17
2017-07-27T06:51:11.259Z,19.77
2017-07-27T06:53:38.774Z,19.37
2017-07-27T06:56:06.309Z,19.03
2017-07-27T06:58:33.819Z,14.37
2017-07-27T07:01:01.728Z,15.70
2017-07-27T07:03:29.278Z,13.13
2017-07-27T07:05:56.786Z,19.17
2017-07-27T07:08:24.299Z,17.93
2017-07-27T07:10:51.830Z,16.77
2017-07-27T07:13:19.746Z,14.90
2017-07-27T07:15:48.086Z,15.87
2017-07-27T07:18:16.015Z,17.50
2017-07-27T07:20:43.522Z,16.00
2017-07-27T07:23:11.431Z,19.23
2017-07-27T07:25:38.967Z,11.93
2017-07-27T07:28:06.481Z,21.10
2017-07-27T07:30:33.985Z,12.50
2017-07-27T07:33:01.512Z,17.53
2017-07-27T07:35:29.014Z,22.70
2017-07-27T07:37:56.914Z,12.77
2017-07-27T07:40:24.454Z,23.20
2017-07-27T07:42:51.962Z,15.97
2017-07-27T07:45:20.210Z,21.57
2017-07-27T07:47:47.750Z,22.37
2017-07-27T07:50:15.254Z,16.97
2017-07-27T07:52:42.760Z,17.00
2017-07-27T07:55:10.285Z,14.07
2017-07-27T07:57:37.795Z,11.40
2017-07-27T08:00:05.303Z,19.50
2017-07-27T08:02:32.834Z,15.83
2017-07-27T08:05:00.336Z,12.53
2017-07-27T08:07:28.235Z,11.90
2017-07-27T08:10:07.598Z,10.30
2017-07-27T08:12:35.133Z,13.97
2017-07-27T08:15:02.645Z,14.97
2017-07-27T08:17:30.574Z,17.20
2017-07-27T08:19:58.083Z,19.00
2017-07-27T08:22:26.186Z,42.90
2017-07-27T08:24:53.714Z,22.00
2017-07-27T08:27:21.620Z,10.00
2017-07-27T08:29:49.126Z,29.33
2017-07-27T08:32:16.654Z,15.77
2017-07-27T08:34:44.158Z,24.83
2017-07-27T08:37:11.663Z,10.73
2017-07-27T08:39:39.202Z,12.50
2017-07-27T08:42:06.710Z,12.30
2017-07-27T08:44:34.210Z,15.80
2017-07-27T08:47:02.141Z,13.77
2017-07-27T08:49:29.638Z,15.30
2017-07-27T08:51:57.536Z,8.30
2017-07-27T08:54:25.067Z,9.00
2017-07-27T08:56:52.566Z,7.70
2017-07-27T08:59:20.066Z,9.60
2017-07-27T09:01:47.603Z,9.63
2017-07-27T09:04:15.107Z,12.40
2017-07-27T09:06:43.007Z,9.50
2017-07-27T09:09:10.538Z,9.23
2017-07-27T09:11:38.443Z,7.90
2017-07-27T09:14:05.970Z,10.23
2017-07-27T09:16:33.927Z,7.20
2017-07-27T09:19:01.836Z,7.57
2017-07-27T09:21:29.342Z,8.00
2017-07-27T09:23:56.877Z,10.23
2017-07-27T09:26:24.378Z,9.60
2017-07-27T09:28:51.883Z,7.20
2017-07-27T09:31:19.406Z,6.83
2017-07-27T09:33:47.302Z,10.07
2017-07-27T09:36:14.799Z,7.33
2017-07-27T09:38:42.324Z,6.53
2017-07-27T09:41:09.841Z,8.87
2017-07-27T09:43:37.363Z,9.63
2017-07-27T09:46:04.936Z,7.07
2017-07-27T09:48:32.447Z,8.40
2017-07-27T09:50:59.952Z,8.20
2017-07-27T09:53:27.483Z,7.10
2017-07-27T09:55:54.987Z,6.80
2017-07-27T09:58:22.507Z,15.80
2017-07-27T10:00:50.038Z,7.83
2017-07-27T10:03:17.667Z,9.13
2017-07-27T10:05:45.191Z,18.53
2017-07-27T10:08:12.718Z,7.67
2017-07-27T10:10:40.626Z,6.60
2017-07-27T10:13:08.138Z,5.90
2017-07-27T10:15:36.070Z,6.50
2017-07-27T10:18:03.582Z,15.87
2017-07-27T10:20:31.498Z,14.73
2017-07-27T10:22:59.050Z,7.47
2017-07-27T10:25:26.584Z,16.47
2017-07-27T10:27:54.094Z,8.70
2017-07-27T10:30:21.632Z,5.43
2017-07-27T10:32:49.131Z,7.03
2017-07-27T10:35:17.051Z,15.73
2017-07-27T10:37:44.574Z,7.33
2017-07-27T10:40:12.477Z,9.03
2017-07-27T10:42:40.018Z,14.83
2017-07-27T10:45:07.551Z,10.97
2017-07-27T10:47:35.058Z,6.43
2017-07-27T10:50:02.591Z,6.80
2017-07-27T10:52:30.519Z,8.73
2017-07-27T10:54:58.026Z,5.87
2017-07-27T10:57:25.554Z,6.40
2017-07-27T10:59:53.079Z,8.40
2017-07-27T11:02:20.591Z,6.80
2017-07-27T11:04:48.514Z,6.37
2017-07-27T11:07:16.025Z,6.27
2017-07-27T11:09:43.921Z,7.43
2017-07-27T11:12:11.451Z,6.70
2017-07-27T11:14:38.959Z,6.53
2017-07-27T11:17:06.475Z,9.30
2017-07-27T11:19:34.401Z,6.73
2017-07-27T11:22:01.915Z,9.40
2017-07-27T11:24:29.435Z,7.47
2017-07-27T11:26:56.994Z,7.37
2017-07-27T11:29:24.551Z,7.27
2017-07-27T11:31:52.517Z,13.60
2017-07-27T11:34:20.078Z,8.80
2017-07-27T11:36:47.583Z,7.60
2017-07-27T11:39:15.220Z,7.30
2017-07-27T11:41:42.751Z,8.73
2017-07-27T11:44:10.263Z,6.27
2017-07-27T11:46:37.767Z,9.20
2017-07-27T11:49:05.301Z,6.40
2017-07-27T11:51:32.880Z,6.73
2017-07-27T11:54:00.388Z,9.03
2017-07-27T11:56:27.910Z,6.13
2017-07-27T11:58:55.426Z,6.10
2017-07-27T12:01:22.927Z,6.20
2017-07-27T12:03:50.492Z,7.47
2017-07-27T12:06:17.990Z,5.97
2017-07-27T12:08:45.910Z,9.33
2017-07-27T12:11:13.436Z,6.03
2017-07-27T12:13:40.934Z,5.67
2017-07-27T12:16:08.442Z,6.17
2017-07-27T12:18:36.366Z,5.27
2017-07-27T12:21:03.892Z,6.90
2017-07-27T12:23:31.410Z,5.90
2017-07-27T12:25:58.967Z,16.83
2017-07-27T12:28:26.487Z,9.67
2017-07-27T12:30:53.999Z,21.93
2017-07-27T12:33:21.557Z,6.10
2017-07-27T12:35:49.081Z,6.87
2017-07-27T12:38:16.591Z,5.60
2017-07-27T12:40:44.490Z,6.03
2017-07-27T12:43:12.027Z,5.40
2017-07-27T12:45:39.930Z,7.60
2017-07-27T12:48:07.434Z,6.40
2017-07-27T12:50:34.962Z,7.60
2017-07-27T12:53:02.462Z,5.43
2017-07-27T12:55:29.982Z,5.43
2017-07-27T12:57:57.515Z,8.37
2017-07-27T13:00:25.038Z,5.80
2017-07-27T13:02:52.567Z,5.80
2017-07-27T13:05:20.070Z,6.27
2017-07-27T13:07:47.999Z,5.33
2017-07-27T13:10:15.499Z,8.27
2017-07-27T13:12:43.103Z,5.77
2017-07-27T13:15:10.657Z,7.47
2017-07-27T13:17:38.164Z,9.93
2017-07-27T13:20:05.681Z,5.40
2017-07-27T13:22:33.215Z,6.20
2017-07-27T13:25:01.129Z,13.67
2017-07-27T13:27:28.638Z,10.60
2017-07-27T13:29:56.171Z,6.53
2017-07-27T13:32:23.667Z,6.00
2017-07-27T13:34:51.187Z,5.70
2017-07-27T13:37:18.766Z,11.57
2017-07-27T13:39:46.286Z,5.83
2017-07-27T13:42:13.790Z,8.57
2017-07-27T13:44:41.732Z,11.13
2017-07-27T13:47:09.252Z,6.10
2017-07-27T13:49:36.755Z,5.50
2017-07-27T13:52:04.289Z,5.00
2017-07-27T13:54:31.935Z,5.50
2017-07-27T13:56:59.433Z,8.20
2017-07-27T13:59:26.967Z,5.13
2017-07-27T14:01:54.466Z,7.00
2017-07-27T14:04:21.973Z,7.03
2017-07-27T14:06:49.499Z,6.13
2017-07-27T14:09:17.399Z,7.23
2017-07-27T14:11:44.898Z,9.63
2017-07-27T14:14:12.422Z,5.73
2017-07-27T14:16:39.935Z,6.50
2017-07-27T14:19:07.438Z,7.00
2017-07-27T14:21:34.961Z,5.33
2017-07-27T14:24:02.479Z,5.80
2017-07-27T14:26:29.978Z,5.27
2017-07-27T14:28:57.510Z,6.00
2017-07-27T14:31:25.023Z,6.93
2017-07-27T14:33:52.522Z,6.77
2017-07-27T14:36:20.047Z,8.27
2017-07-27T14:38:47.574Z,5.10
2017-07-27T14:41:15.088Z,4.90
2017-07-27T14:43:42.626Z,4.97
2017-07-27T14:46:10.135Z,7.10
2017-07-27T14:48:37.637Z,4.90
2017-07-27T14:51:05.550Z,4.97
2017-07-27T14:53:33.056Z,5.23
2017-07-27T14:56:00.960Z,6.23
2017-07-27T14:58:28.487Z,4.83
2017-07-27T15:00:56.412Z,7.90
2017-07-27T15:03:23.947Z,6.50
2017-07-27T15:05:51.467Z,4.93
2017-07-27T15:08:18.981Z,5.30
2017-07-27T15:10:46.507Z,5.20
2017-07-27T15:13:14.403Z,5.43
2017-07-27T15:15:41.911Z,7.10
2017-07-27T15:18:09.434Z,8.23
2017-07-27T15:20:36.934Z,5.20
2017-07-27T15:23:04.528Z,8.27
2017-07-27T15:25:32.050Z,6.07
2017-07-27T15:27:59.554Z,5.83
2017-07-27T15:30:27.098Z,6.83
2017-07-27T15:32:55.362Z,6.17
2017-07-27T15:35:22.863Z,5.57
2017-07-27T15:37:50.362Z,5.17
2017-07-27T15:40:17.891Z,6.53
2017-07-27T15:42:45.395Z,7.60
2017-07-27T15:45:12.894Z,6.63
2017-07-27T15:47:40.419Z,6.13
2017-07-27T15:50:07.914Z,5.50
2017-07-27T15:52:35.423Z,6.17
2017-07-27T15:55:02.958Z,9.03
2017-07-27T15:57:30.470Z,6.50
2017-07-27T15:59:58.362Z,5.93
2017-07-27T16:02:25.898Z,6.07
2017-07-27T16:04:53.795Z,5.70
2017-07-27T16:07:21.299Z,7.80
2017-07-27T16:09:48.839Z,5.50
2017-07-27T16:12:16.342Z,6.27
2017-07-27T16:14:44.252Z,17.93
2017-07-27T16:17:11.814Z,9.40
2017-07-27T16:19:39.316Z,9.67
2017-07-27T16:22:06.819Z,5.87
2017-07-27T16:24:34.344Z,6.10
2017-07-27T16:27:01.842Z,8.27
2017-07-27T16:29:29.351Z,8.10
2017-07-27T16:31:56.875Z,5.83
2017-07-27T16:34:24.374Z,6.23
2017-07-27T16:36:51.874Z,6.30
2017-07-27T16:39:19.406Z,6.83
2017-07-27T16:41:46.907Z,6.10
2017-07-27T16:44:14.416Z,6.53
2017-07-27T16:46:41.949Z,7.73
2017-07-27T16:49:09.476Z,5.93
2017-07-27T16:51:37.003Z,8.63
2017-07-27T16:54:05.139Z,5.97
2017-07-27T16:56:32.638Z,6.67
2017-07-27T16:59:00.150Z,12.77
2017-07-27T17:01:27.679Z,8.50
2017-07-27T17:03:55.574Z,6.87
2017-07-27T17:06:23.078Z,5.60
2017-07-27T17:08:50.606Z,6.50
2017-07-27T17:11:18.102Z,25.30
2017-07-27T17:13:45.608Z,18.53
2017-07-27T17:16:13.148Z,27.33
2017-07-27T17:18:40.667Z,16.60
2017-07-27T17:21:08.166Z,18.10
2017-07-27T17:23:36.098Z,9.07
2017-07-27T17:26:03.611Z,6.60
2017-07-27T17:28:31.116Z,9.20
2017-07-27T17:30:58.666Z,10.50
2017-07-27T17:33:26.187Z,14.90
2017-07-27T17:35:53.701Z,19.63
2017-07-27T17:38:21.231Z,8.93
2017-07-27T17:40:48.734Z,9.30
2017-07-27T17:43:16.247Z,14.27
2017-07-27T17:45:43.783Z,6.83
2017-07-27T17:48:11.295Z,15.80
2017-07-27T17:50:38.803Z,19.30
2017-07-27T17:53:06.376Z,12.17
2017-07-27T17:55:33.891Z,10.67
2017-07-27T17:58:01.404Z,14.23
2017-07-27T18:00:28.938Z,8.97
2017-07-27T18:02:56.841Z,38.87
2017-07-27T18:05:24.350Z,48.80
2017-07-27T18:07:52.282Z,64.03
2017-07-27T18:10:19.820Z,89.33
2017-07-27T18:12:47.354Z,70.10
2017-07-27T18:15:14.886Z,41.37
2017-07-27T18:17:42.412Z,23.73
2017-07-27T18:20:09.965Z,19.63
2017-07-27T18:22:37.491Z,24.87
2017-07-27T18:25:05.395Z,12.43
2017-07-27T18:27:32.926Z,17.60
2017-07-27T18:30:00.862Z,18.97
2017-07-27T18:32:28.399Z,13.90
2017-07-27T18:34:55.947Z,19.60
2017-07-27T18:37:23.479Z,8.53
2017-07-27T18:39:51.375Z,7.30
2017-07-27T18:42:18.898Z,16.23
2017-07-27T18:44:46.890Z,11.73
2017-07-27T18:47:14.406Z,32.20
2017-07-27T18:49:42.030Z,20.80
2017-07-27T18:52:09.603Z,13.13
2017-07-27T18:54:37.118Z,33.23
2017-07-27T18:57:05.040Z,14.47
2017-07-27T18:59:32.570Z,19.73
2017-07-27T19:02:00.092Z,20.67
2017-07-27T19:04:27.708Z,6.00
2017-07-27T19:06:55.316Z,11.43
2017-07-27T19:09:22.872Z,18.33
2017-07-27T19:11:50.398Z,17.73
2017-07-27T19:14:17.940Z,11.97
2017-07-27T19:16:46.085Z,21.90
2017-07-27T19:19:13.642Z,12.87
2017-07-27T19:21:41.558Z,11.00
2017-07-27T19:24:09.149Z,11.77
2017-07-27T19:26:36.824Z,11.60
2017-07-27T19:29:06.200Z,18.33
2017-07-27T19:31:33.864Z,11.53
2017-07-27T19:34:01.597Z,8.27
2017-07-27T19:36:29.274Z,9.60
2017-07-27T19:38:57.009Z,12.50
2017-07-27T19:41:24.535Z,25.37
2017-07-27T19:43:52.112Z,8.73
2017-07-27T19:46:20.048Z,7.40
2017-07-27T19:48:47.611Z,8.60
2017-07-27T19:51:15.149Z,7.40
2017-07-27T19:53:42.679Z,7.13
2017-07-27T19:56:10.627Z,9.10
2017-07-27T19:58:38.612Z,8.67
2017-07-27T20:01:06.688Z,8.20
2017-07-27T20:03:34.318Z,10.50
2017-07-27T20:06:01.921Z,6.93
2017-07-27T20:08:29.544Z,10.83
2017-07-27T20:10:57.070Z,15.83
2017-07-27T20:13:24.605Z,8.27
2017-07-27T20:15:52.163Z,10.53
2017-07-27T20:18:20.099Z,13.67
2017-07-27T20:20:47.665Z,9.43
2017-07-27T20:23:15.230Z,8.23
2017-07-27T20:25:42.740Z,7.70
2017-07-27T20:28:10.247Z,7.23
2017-07-27T20:30:37.866Z,6.70
2017-07-27T20:33:05.427Z,6.00
2017-07-27T20:35:32.964Z,5.90
2017-07-27T20:38:00.508Z,6.83
2017-07-27T20:40:28.434Z,6.33
2017-07-27T20:42:55.951Z,6.77
2017-07-27T20:45:23.878Z,5.33
2017-07-27T20:47:51.410Z,5.80
2017-07-27T20:50:18.917Z,5.67
2017-07-27T20:52:46.447Z,7.67
2017-07-27T20:55:13.954Z,5.10
2017-07-27T20:57:41.860Z,5.13
2017-07-27T21:00:09.405Z,6.70
2017-07-27T21:02:36.926Z,31.03
2017-07-27T21:05:04.432Z,7.23
2017-07-27T21:07:31.971Z,6.80
2017-07-27T21:09:59.867Z,5.90
2017-07-27T21:12:27.379Z,6.60
2017-07-27T21:14:54.902Z,5.20
2017-07-27T21:17:22.401Z,5.93
2017-07-27T21:19:49.910Z,13.40
2017-07-27T21:22:17.438Z,15.80
2017-07-27T21:24:44.949Z,15.80
2017-07-27T21:27:12.454Z,8.87
2017-07-27T21:29:40.387Z,41.40
2017-07-27T21:32:07.911Z,37.10
2017-07-27T21:34:35.435Z,30.83
2017-07-27T21:37:03.366Z,81.30
2017-07-27T21:39:30.919Z,41.03
2017-07-27T21:41:58.435Z,55.90
2017-07-27T21:44:26.373Z,22.57
2017-07-27T21:46:53.892Z,37.93
2017-07-27T21:49:21.400Z,36.43
2017-07-27T21:51:48.932Z,8.83
2017-07-27T21:54:16.434Z,6.87
2017-07-27T21:56:44.338Z,6.70
2017-07-27T21:59:11.870Z,22.30
2017-07-27T22:01:39.768Z,52.13
2017-07-27T22:04:07.278Z,24.10
2017-07-27T22:06:34.806Z,6.93
2017-07-27T22:09:02.307Z,5.37
2017-07-27T22:11:30.217Z,9.33
2017-07-27T22:13:57.753Z,5.60
2017-07-27T22:16:25.283Z,7.27
2017-07-27T22:18:52.791Z,5.70
2017-07-27T22:21:20.323Z,7.77
2017-07-27T22:23:48.218Z,9.10
2017-07-27T22:26:15.747Z,6.50
2017-07-27T22:28:43.271Z,6.33
2017-07-27T22:31:10.765Z,5.23
2017-07-27T22:33:38.275Z,4.67
2017-07-27T22:36:05.799Z,5.03
2017-07-27T22:38:33.702Z,8.40
2017-07-27T22:41:01.207Z,5.10
2017-07-27T22:43:28.735Z,5.90
2017-07-27T22:45:56.242Z,6.20
2017-07-27T22:48:24.150Z,13.80
2017-07-27T22:50:51.675Z,7.87
2017-07-27T22:53:19.573Z,5.30
2017-07-27T22:55:47.074Z,10.83
2017-07-27T22:58:14.615Z,9.50
2017-07-27T23:00:42.122Z,6.93
2017-07-27T23:03:10.018Z,5.80
2017-07-27T23:05:37.550Z,6.70
2017-07-27T23:08:05.446Z,9.53
2017-07-27T23:10:32.962Z,5.53
2017-07-27T23:13:00.494Z,6.40
2017-07-27T23:15:28.022Z,5.87
2017-07-27T23:17:55.542Z,6.27
2017-07-27T23:20:23.099Z,6.93
2017-07-27T23:22:50.618Z,8.50
2017-07-27T23:25:18.122Z,5.90
2017-07-27T23:27:45.656Z,5.77
2017-07-27T23:30:13.170Z,5.93
2017-07-27T23:32:40.680Z,6.77
2017-07-27T23:35:08.202Z,5.97
2017-07-27T23:37:35.732Z,7.07
2017-07-27T23:40:03.247Z,10.50
2017-07-27T23:42:30.813Z,5.87
2017-07-27T23:44:58.320Z,5.60
2017-07-27T23:47:26.225Z,6.27
2017-07-27T23:49:53.756Z,7.30
2017-07-27T23:52:21.660Z,6.00
2017-07-27T23:54:49.161Z,5.93
2017-07-27T23:57:16.746Z,6.33
2017-07-27T23:59:44.687Z,8.97
